Birmingham (BHM/KBHM)

Map

Destinations

Information

Location
Birmingham, AL
Local Time
14:56 / 2:56 pm
GMT Time
19:56 / 7:56 pm
Gates
Unassigned
No FAA reported delays
METAR KBHM 281953Z 17012G27KT 10SM SCT048 SCT055 31/19 A2997 RMK AO2 PK WND 18027/1921 SLP138 T03110189
TAF KBHM 281735Z 2818/2918 17012G23KT P6SM BKN040 FM290000 18012KT P6SM BKN100 FM290700 18012KT P6SM BKN015